首页
METAR-TAF:

METAR-TAF

机场 :

桂林兩江國際機場

桂林, 中华人民共和国

纬度: 25-20N, 经度: 110-18E, 海拔: 166米

当前天气观测

该预报发布于19分钟前的05:00 UTC
风速12节,风向东转东北
温度 31°C
湿度 52%
气压 1004 hPa
能见度10公里或以上
少量云层高于5000英尺

METAR: ZGKL 280500Z 07006MPS 9999 FEW050 31/20 Q1004 NOSIG

时间: 13:19 (05:19 UTC)

预报

该预报发布于6小时和43分钟前的22:36 UTC
预报有效从28日的 00点(UTC)到 28日的 24点(UTC)
风速6节,风向东北
能見度: 6000
散云层高于3000英尺
短暂存在
从 28日的 05点(UTC)到 28日的 11点(UTC)
少量云层高于3000英尺, 积雨云.
多云层高于3300英尺

TAF: ZGKL 272236Z 2800/2824 05003MPS 6000 SCT030 TX34/2807Z TN23/2822Z TEMPO 2805/2811 FEW030CB BKN033

超过4000个机场的气象观测和天气预报(METAR&TAF报告)。

可查询的气象台以黄色和红色小点在地图上表示。

将鼠标移到小点上方,可查看气象台名称。

然后点击查看天气观测和预报。

如需切换地图:点击带黑十字的绿色按钮放大地图;点击带横线的绿色按钮缩小地图;或者点击绿色箭头查看邻近地区的地图。


METAR-TAF: